Time;durP1;ratioP1;P1;durP2;ratioP2;P2;SDS_P1;SDS_P2;PMS_P1;PMS_P2;Temp;Humidity;BMP_temperature;BMP_pressure;BME280_temperature;BME280_humidity;BME280_pressure;Samples;Min_cycle;Max_cycle;Signal;HPM_P1;HPM_P2
2021/12/18 00:01:30;;;;;;;7.90;4.38;;;7.20;99.90;;;;;;5014212;28;20043;-68
2021/12/18 00:03:57;;;;;;;15.18;7.15;;;7.30;99.90;;;;;;5016620;28;20380;-68
2021/12/18 00:06:25;;;;;;;19.65;7.00;;;7.30;99.90;;;;;;5001666;28;20049;-68
2021/12/18 00:08:51;;;;;;;17.10;7.57;;;7.30;99.90;;;;;;5013319;28;20158;-68
2021/12/18 00:11:17;;;;;;;12.60;5.80;;;7.30;99.90;;;;;;5014241;28;20508;-68
2021/12/18 00:13:42;;;;;;;26.45;11.75;;;7.30;99.90;;;;;;5012135;28;20033;-68
2021/12/18 00:16:08;;;;;;;57.25;25.60;;;7.30;99.90;;;;;;5011012;28;20175;-68
2021/12/18 00:18:35;;;;;;;59.88;29.75;;;7.30;99.90;;;;;;5011185;28;20053;-69
2021/12/18 00:21:01;;;;;;;138.60;67.90;;;7.30;99.90;;;;;;5013539;28;20401;-68
2021/12/18 00:23:27;;;;;;;120.32;61.42;;;7.30;99.90;;;;;;5029312;28;20142;-68
2021/12/18 00:25:53;;;;;;;145.32;78.82;;;7.30;99.90;;;;;;4998208;28;20049;-68
2021/12/18 00:28:19;;;;;;;107.00;60.35;;;7.30;99.90;;;;;;5008815;28;20045;-68
2021/12/18 00:30:45;;;;;;;55.97;32.58;;;7.30;99.90;;;;;;5012911;28;20041;-68
2021/12/18 00:33:11;;;;;;;25.08;12.60;;;7.20;99.90;;;;;;4997300;28;20560;-68
2021/12/18 00:35:37;;;;;;;13.38;6.75;;;7.20;99.90;;;;;;5030081;28;20366;-68
2021/12/18 00:38:05;;;;;;;12.75;5.15;;;7.20;99.90;;;;;;5016517;28;20044;-68
2021/12/18 00:40:43;;;;;;;10.88;5.15;;;7.20;99.90;;;;;;5013533;28;20040;-68
2021/12/18 00:43:23;;;;;;;11.02;6.38;;;7.20;99.90;;;;;;5012976;28;20079;-68
2021/12/18 00:45:50;;;;;;;13.75;7.35;;;7.20;99.90;;;;;;5008477;28;20036;-68
2021/12/18 00:48:15;;;;;;;16.88;7.72;;;7.20;99.90;;;;;;5002342;28;20068;-68
2021/12/18 00:50:41;;;;;;;11.90;6.55;;;7.10;99.90;;;;;;4989851;28;20561;-68
2021/12/18 00:53:06;;;;;;;8.27;4.63;;;7.10;99.90;;;;;;5001376;28;20425;-68
2021/12/18 00:55:34;;;;;;;10.35;4.75;;;7.10;99.90;;;;;;4988135;28;20045;-68
2021/12/18 00:57:59;;;;;;;9.48;4.70;;;7.10;99.90;;;;;;5004172;28;20096;-68
2021/12/18 01:00:25;;;;;;;9.43;4.43;;;7.10;99.90;;;;;;4995098;28;20049;-68
2021/12/18 01:02:56;;;;;;;7.38;3.97;;;7.10;99.90;;;;;;5013715;28;20048;-69
2021/12/18 01:05:22;;;;;;;8.63;4.10;;;7.10;99.90;;;;;;5012237;28;20033;-68
2021/12/18 01:07:48;;;;;;;8.88;4.25;;;7.10;99.90;;;;;;5011561;28;20041;-68
2021/12/18 01:10:40;;;;;;;6.82;3.30;;;7.10;99.90;;;;;;5028648;28;20087;-68
2021/12/18 01:13:09;;;;;;;6.53;3.28;;;7.10;99.90;;;;;;5011834;28;20119;-68
2021/12/18 01:15:40;;;;;;;13.45;3.20;;;7.10;99.90;;;;;;5028154;28;20045;-68
2021/12/18 01:23:34;;;;;;;6.95;2.72;;;7.10;99.90;;;;;;5011875;28;20084;-68
2021/12/18 01:26:00;;;;;;;7.55;2.85;;;7.10;99.90;;;;;;5012677;28;27306;-68
2021/12/18 01:28:26;;;;;;;7.85;3.03;;;7.00;99.90;;;;;;5008706;28;20045;-67
2021/12/18 01:30:52;;;;;;;7.15;2.80;;;7.10;99.90;;;;;;5010417;28;20079;-68
2021/12/18 01:33:18;;;;;;;9.07;3.40;;;7.10;99.90;;;;;;5032330;28;20041;-68
2021/12/18 01:35:44;;;;;;;9.80;3.80;;;7.00;99.90;;;;;;5010258;28;20511;-68
2021/12/18 01:38:11;;;;;;;13.75;3.28;;;7.00;99.90;;;;;;5012238;28;20038;-68
2021/12/18 01:40:37;;;;;;;9.60;2.90;;;7.00;99.90;;;;;;5009978;28;20049;-68
2021/12/18 01:51:23;;;;;;;5.82;2.42;;;6.90;99.90;;;;;;5011640;28;20421;-68
2021/12/18 01:53:52;;;;;;;6.88;2.58;;;6.90;99.90;;;;;;5031131;28;20037;-68
2021/12/18 01:56:18;;;;;;;6.28;2.40;;;6.90;99.90;;;;;;5011186;28;20040;-68
2021/12/18 01:58:45;;;;;;;4.57;2.30;;;6.90;99.90;;;;;;5010695;28;20380;-68
2021/12/18 02:01:11;;;;;;;4.22;1.80;;;6.90;99.90;;;;;;4995658;28;20064;-67
2021/12/18 02:03:37;;;;;;;2.92;1.50;;;6.90;99.90;;;;;;5010715;28;20429;-68
2021/12/18 02:06:03;;;;;;;3.35;1.60;;;6.90;99.90;;;;;;5011712;28;20047;-68
2021/12/18 02:08:30;;;;;;;2.95;1.45;;;6.90;99.90;;;;;;5011555;28;20084;-67
2021/12/18 02:11:24;;;;;;;3.72;1.35;;;6.90;99.90;;;;;;5009834;28;20084;-68
2021/12/18 02:14:23;;;;;;;3.35;1.10;;;6.90;99.90;;;;;;5007908;28;20477;-68
2021/12/18 02:19:48;;;;;;;5.07;1.70;;;6.80;99.90;;;;;;5027953;28;20052;-68
2021/12/18 02:22:15;;;;;;;3.40;1.42;;;6.80;99.90;;;;;;5012118;28;20150;-67
2021/12/18 02:24:41;;;;;;;4.18;1.33;;;6.80;99.90;;;;;;5010729;28;20131;-68
2021/12/18 02:27:07;;;;;;;3.47;1.70;;;6.80;99.90;;;;;;5027444;28;20765;-68
2021/12/18 02:29:36;;;;;;;3.22;1.90;;;6.80;99.90;;;;;;5009609;28;20133;-68
2021/12/18 02:32:02;;;;;;;3.70;1.40;;;6.80;99.90;;;;;;5031773;28;20099;-68
2021/12/18 02:34:30;;;;;;;2.75;1.20;;;6.80;99.90;;;;;;5029988;28;20064;-68
2021/12/18 02:37:03;;;;;;;3.22;1.60;;;6.70;99.90;;;;;;5012946;28;20051;-68
2021/12/18 02:42:19;;;;;;;3.75;1.45;;;6.80;99.90;;;;;;5010230;28;20050;-68
2021/12/18 02:44:45;;;;;;;2.63;1.23;;;6.70;99.90;;;;;;5013307;28;20129;-68
2021/12/18 02:47:12;;;;;;;4.05;1.23;;;6.70;99.90;;;;;;5015979;28;20310;-67
2021/12/18 02:49:43;;;;;;;3.42;1.40;;;6.70;99.90;;;;;;5033971;28;20045;-68
2021/12/18 02:52:09;;;;;;;2.92;1.25;;;6.70;99.90;;;;;;5016691;28;20048;-68
2021/12/18 02:54:40;;;;;;;2.88;1.00;;;6.80;99.90;;;;;;5016358;28;20029;-68
2021/12/18 02:57:06;;;;;;;4.82;1.70;;;6.70;99.90;;;;;;5027577;28;20036;-68
2021/12/18 02:59:44;;;;;;;2.78;0.98;;;6.70;99.90;;;;;;5012664;28;20469;-68
2021/12/18 03:02:10;;;;;;;3.05;1.40;;;6.80;99.90;;;;;;5014726;28;20041;-68
2021/12/18 03:04:38;;;;;;;4.80;1.40;;;6.70;99.90;;;;;;5001448;28;20063;-68
2021/12/18 03:07:06;;;;;;;3.47;1.42;;;6.70;99.90;;;;;;5017639;28;20070;-68
2021/12/18 03:23:38;;;;;;;7.68;2.28;;;6.70;99.90;;;;;;4993532;28;20072;-67
2021/12/18 03:26:04;;;;;;;5.47;2.00;;;6.70;99.90;;;;;;5014889;28;20029;-67
2021/12/18 03:28:30;;;;;;;7.25;2.10;;;6.70;99.90;;;;;;5029966;28;20480;-67
2021/12/18 03:30:56;;;;;;;6.85;2.40;;;6.70;99.90;;;;;;5030480;28;20457;-67
2021/12/18 03:33:27;;;;;;;8.27;2.42;;;6.70;99.90;;;;;;5015153;28;20508;-67
2021/12/18 03:35:52;;;;;;;;;;;6.70;99.90;;;;;;5032985;28;20124;-67
2021/12/18 03:38:18;;;;;;;7.15;2.53;;;6.70;99.90;;;;;;5014146;28;19931;-67
2021/12/18 03:40:43;;;;;;;8.55;2.65;;;6.60;99.90;;;;;;5015108;28;20121;-67
2021/12/18 03:43:10;;;;;;;7.78;2.72;;;6.70;99.90;;;;;;5032258;28;20041;-67
2021/12/18 03:45:35;;;;;;;7.97;2.20;;;6.70;99.90;;;;;;5013801;28;20816;-65
2021/12/18 03:48:01;;;;;;;6.07;1.88;;;6.70;99.90;;;;;;5029469;28;20045;-66
2021/12/18 03:50:27;;;;;;;5.47;1.75;;;6.70;99.90;;;;;;5015242;28;20038;-65
2021/12/18 03:52:52;;;;;;;5.40;2.08;;;6.70;99.90;;;;;;5013850;28;21157;-65
2021/12/18 03:55:19;;;;;;;6.35;1.98;;;6.70;99.90;;;;;;5014079;28;20589;-65
2021/12/18 03:57:44;;;;;;;6.70;2.00;;;6.60;99.90;;;;;;5031422;28;20085;-65
2021/12/18 04:00:12;;;;;;;5.97;1.80;;;6.70;99.90;;;;;;5026596;28;20198;-65
2021/12/18 04:02:39;;;;;;;7.40;2.10;;;6.60;99.90;;;;;;5012423;28;20071;-65
2021/12/18 04:05:05;;;;;;;6.22;2.03;;;6.70;99.90;;;;;;5014629;28;20037;-65
2021/12/18 04:07:30;;;;;;;4.90;1.83;;;6.60;99.90;;;;;;5010160;28;20406;-65
2021/12/18 04:09:56;;;;;;;4.80;1.85;;;6.60;99.90;;;;;;4997598;28;20098;-65
2021/12/18 04:12:22;;;;;;;4.13;1.25;;;6.60;99.90;;;;;;5013948;28;20040;-66
2021/12/18 04:14:47;;;;;;;6.78;1.42;;;6.60;99.90;;;;;;5013586;28;20115;-67
2021/12/18 04:17:13;;;;;;;4.70;1.95;;;6.50;99.90;;;;;;5010488;28;20033;-65
2021/12/18 04:19:39;;;;;;;5.65;1.58;;;6.50;99.90;;;;;;5014427;28;20451;-65
2021/12/18 04:22:05;;;;;;;4.72;1.45;;;6.50;99.90;;;;;;5014716;28;20099;-67
2021/12/18 04:24:30;;;;;;;8.20;1.77;;;6.50;99.90;;;;;;5012596;28;20469;-66
2021/12/18 04:26:56;;;;;;;4.85;1.65;;;6.50;99.90;;;;;;5029338;28;20106;-66
2021/12/18 04:29:21;;;;;;;5.35;1.42;;;6.50;99.90;;;;;;5013598;28;20111;-66
2021/12/18 04:31:47;;;;;;;5.32;1.52;;;6.50;99.90;;;;;;5015354;28;20033;-67
2021/12/18 04:34:13;;;;;;;5.30;2.03;;;6.50;99.90;;;;;;5030464;28;20048;-67
2021/12/18 04:36:38;;;;;;;5.03;2.00;;;6.40;99.90;;;;;;5012519;28;20111;-66
2021/12/18 04:39:05;;;;;;;6.68;1.88;;;6.40;99.90;;;;;;5013812;28;20124;-65
2021/12/18 04:41:43;;;;;;;6.65;2.22;;;6.40;99.90;;;;;;5015181;28;20159;-66
2021/12/18 04:44:09;;;;;;;8.13;1.67;;;6.40;99.90;;;;;;5012384;28;20037;-66
2021/12/18 04:46:35;;;;;;;4.47;1.65;;;6.40;99.90;;;;;;5013508;28;20087;-66
2021/12/18 04:49:01;;;;;;;6.80;1.92;;;6.40;99.90;;;;;;5011417;28;20040;-66
2021/12/18 04:51:27;;;;;;;4.47;1.50;;;6.50;99.90;;;;;;5014826;28;20065;-66
2021/12/18 04:53:52;;;;;;;6.68;1.95;;;6.50;99.90;;;;;;5014835;28;20118;-66
2021/12/18 04:56:18;;;;;;;5.53;1.65;;;6.50;99.90;;;;;;5011014;28;20120;-66
2021/12/18 04:58:43;;;;;;;6.20;1.60;;;6.50;99.90;;;;;;5013200;28;20083;-66
2021/12/18 05:01:09;;;;;;;6.35;1.67;;;6.40;99.90;;;;;;5011405;28;20040;-65
2021/12/18 05:03:37;;;;;;;5.05;1.48;;;6.50;99.90;;;;;;5012789;28;20551;-64
2021/12/18 05:06:03;;;;;;;5.18;1.30;;;6.40;99.90;;;;;;5011019;28;20189;-66
2021/12/18 05:08:29;;;;;;;6.43;1.58;;;6.50;99.90;;;;;;5029240;28;20044;-66
2021/12/18 05:10:54;;;;;;;7.80;2.03;;;6.50;99.90;;;;;;5012982;28;20048;-65
2021/12/18 05:13:20;;;;;;;5.75;1.73;;;6.50;99.90;;;;;;5028898;28;20083;-65
2021/12/18 05:15:46;;;;;;;5.65;1.88;;;6.40;99.90;;;;;;5012027;28;20082;-64
2021/12/18 05:18:11;;;;;;;6.65;1.98;;;6.40;99.90;;;;;;5013695;28;20036;-65
2021/12/18 05:20:37;;;;;;;6.28;1.73;;;6.40;99.90;;;;;;5029521;28;20039;-66
2021/12/18 05:23:03;;;;;;;6.38;1.67;;;6.40;99.90;;;;;;5011934;28;20061;-65
2021/12/18 05:25:28;;;;;;;7.68;2.17;;;6.40;99.90;;;;;;5028474;28;20384;-65
2021/12/18 05:27:54;;;;;;;9.38;2.00;;;6.50;99.90;;;;;;5009885;28;20335;-65
2021/12/18 05:30:20;;;;;;;6.85;1.80;;;6.50;99.90;;;;;;5010001;28;20061;-65
2021/12/18 05:32:54;;;;;;;8.38;2.42;;;6.50;99.90;;;;;;5029289;28;20148;-66
2021/12/18 05:35:20;;;;;;;9.35;2.13;;;6.50;99.90;;;;;;5012333;28;20144;-65
2021/12/18 05:37:51;;;;;;;7.93;2.50;;;6.50;99.90;;;;;;5028129;28;20436;-65
2021/12/18 05:40:21;;;;;;;8.68;2.03;;;6.50;99.90;;;;;;5012295;28;20560;-65
2021/12/18 05:42:48;;;;;;;8.00;1.70;;;6.50;99.90;;;;;;5010785;28;20048;-66
2021/12/18 05:45:14;;;;;;;9.68;2.47;;;6.50;99.90;;;;;;5009148;28;20039;-66
2021/12/18 05:47:40;;;;;;;7.43;2.10;;;6.50;99.90;;;;;;5010953;28;20473;-66
2021/12/18 05:50:07;;;;;;;9.60;2.60;;;6.50;99.90;;;;;;5012818;28;20045;-64
2021/12/18 05:52:33;;;;;;;7.38;1.70;;;6.50;99.90;;;;;;5010854;28;20064;-65
2021/12/18 05:54:58;;;;;;;4.65;1.77;;;6.50;99.90;;;;;;5014301;28;20117;-65
2021/12/18 05:57:24;;;;;;;7.18;2.20;;;6.50;99.90;;;;;;5029509;28;20036;-65
2021/12/18 05:59:50;;;;;;;7.30;2.42;;;6.60;99.90;;;;;;5029253;28;20095;-64
2021/12/18 06:02:16;;;;;;;6.68;2.00;;;6.60;99.90;;;;;;4997482;28;20041;-65
2021/12/18 06:04:42;;;;;;;6.20;1.80;;;6.60;99.90;;;;;;5012555;28;20048;-64
2021/12/18 06:07:16;;;;;;;9.38;1.70;;;6.60;99.90;;;;;;5008870;28;20584;-64
2021/12/18 06:09:41;;;;;;;4.75;2.15;;;6.60;99.90;;;;;;5027564;28;20059;-65
2021/12/18 06:12:08;;;;;;;5.93;1.63;;;6.60;99.90;;;;;;5007673;28;20053;-65
2021/12/18 06:14:33;;;;;;;6.45;1.40;;;6.60;99.90;;;;;;5012776;28;20044;-66
2021/12/18 06:16:59;;;;;;;3.88;1.75;;;6.60;99.90;;;;;;5010144;28;20041;-66
2021/12/18 06:19:24;;;;;;;6.15;1.38;;;6.60;99.90;;;;;;5016330;28;20133;-66
2021/12/18 06:21:50;;;;;;;6.03;1.90;;;6.60;99.90;;;;;;5014711;28;20090;-66
2021/12/18 06:24:16;;;;;;;3.92;1.48;;;6.70;99.90;;;;;;5016000;28;20076;-66
2021/12/18 06:26:42;;;;;;;5.38;2.00;;;6.60;99.90;;;;;;5001252;28;20037;-65
2021/12/18 06:29:08;;;;;;;8.10;2.35;;;6.70;99.90;;;;;;5031017;28;20037;-65
2021/12/18 06:31:36;;;;;;;7.30;1.85;;;6.70;99.90;;;;;;5014632;28;20044;-66
2021/12/18 06:34:02;;;;;;;8.23;2.08;;;6.70;99.90;;;;;;5013663;28;20423;-65
2021/12/18 06:36:28;;;;;;;7.60;2.13;;;6.70;99.90;;;;;;4998189;28;20056;-66
2021/12/18 06:38:53;;;;;;;6.57;1.65;;;6.70;99.90;;;;;;5012954;28;20033;-64
2021/12/18 06:41:19;;;;;;;7.50;1.98;;;6.70;99.90;;;;;;4998178;28;20038;-64
2021/12/18 06:43:44;;;;;;;7.35;2.35;;;6.70;99.90;;;;;;5011240;28;20753;-66
2021/12/18 06:46:10;;;;;;;8.57;2.20;;;6.70;99.90;;;;;;5029825;28;20041;-70
2021/12/18 06:48:36;;;;;;;4.40;1.77;;;6.70;99.90;;;;;;4999380;28;20037;-65
2021/12/18 06:51:02;;;;;;;9.43;2.30;;;6.70;99.90;;;;;;5014595;28;20388;-66
2021/12/18 06:53:28;;;;;;;6.35;2.50;;;6.70;99.90;;;;;;5014888;28;20071;-66
2021/12/18 06:55:53;;;;;;;7.53;2.40;;;6.70;99.90;;;;;;5015452;28;20531;-64
2021/12/18 06:58:19;;;;;;;7.97;2.38;;;6.70;99.90;;;;;;5012509;28;20048;-65
2021/12/18 07:00:45;;;;;;;7.13;2.67;;;6.70;99.90;;;;;;5013861;28;20056;-65
2021/12/18 07:03:12;;;;;;;7.75;2.40;;;6.70;99.90;;;;;;5012942;28;20032;-66
2021/12/18 07:05:38;;;;;;;7.20;2.00;;;6.70;99.90;;;;;;4998619;28;20510;-65
2021/12/18 07:08:04;;;;;;;8.55;2.30;;;6.80;99.90;;;;;;5014525;28;20036;-64
2021/12/18 07:10:31;;;;;;;9.52;2.72;;;6.80;99.90;;;;;;5013480;28;20031;-65
2021/12/18 07:12:57;;;;;;;8.25;2.50;;;6.80;99.90;;;;;;5013487;28;20045;-65
2021/12/18 07:15:23;;;;;;;7.10;2.38;;;6.80;99.90;;;;;;5028094;28;20052;-64
2021/12/18 07:17:48;;;;;;;6.30;2.40;;;6.80;99.90;;;;;;5010822;28;20037;-65
2021/12/18 07:20:14;;;;;;;8.93;2.70;;;6.80;99.90;;;;;;5011982;28;20502;-64
2021/12/18 07:22:39;;;;;;;7.93;2.45;;;6.90;99.90;;;;;;5014572;28;20124;-64
2021/12/18 07:25:06;;;;;;;7.28;2.30;;;6.80;99.90;;;;;;5030878;28;20045;-64
2021/12/18 07:27:31;;;;;;;13.05;3.15;;;6.90;99.90;;;;;;5030240;28;20041;-64
2021/12/18 07:29:57;;;;;;;10.40;2.45;;;6.90;99.90;;;;;;5011316;28;20042;-64
2021/12/18 07:32:22;;;;;;;8.75;3.03;;;6.90;99.90;;;;;;5011738;28;20107;-66
2021/12/18 07:34:48;;;;;;;13.10;3.60;;;6.90;99.90;;;;;;4988259;28;20122;-65
2021/12/18 07:37:14;;;;;;;9.20;3.13;;;6.90;99.90;;;;;;5006715;28;20235;-65
2021/12/18 07:39:39;;;;;;;11.32;3.05;;;7.00;99.90;;;;;;4998045;28;20056;-65
2021/12/18 07:42:05;;;;;;;12.57;3.42;;;6.90;99.90;;;;;;5021089;28;20165;-65
2021/12/18 07:44:31;;;;;;;9.45;3.22;;;7.00;99.90;;;;;;5010351;28;20088;-64
2021/12/18 07:46:56;;;;;;;11.13;3.47;;;7.00;99.90;;;;;;4993102;28;20132;-64
2021/12/18 07:49:22;;;;;;;12.77;3.42;;;7.00;99.90;;;;;;5027134;28;20048;-64
2021/12/18 07:51:47;;;;;;;9.80;3.63;;;7.10;99.90;;;;;;5011213;28;20048;-64
2021/12/18 07:54:13;;;;;;;13.23;3.67;;;7.10;99.90;;;;;;5008592;28;20115;-64
2021/12/18 07:56:39;;;;;;;15.07;4.20;;;7.10;99.90;;;;;;5007286;28;20140;-64
2021/12/18 07:59:04;;;;;;;10.65;3.65;;;7.10;99.90;;;;;;4990990;28;20693;-66
2021/12/18 08:01:30;;;;;;;11.57;3.53;;;7.10;99.90;;;;;;5006139;28;20167;-64
2021/12/18 08:03:55;;;;;;;14.75;4.18;;;7.10;99.90;;;;;;5006358;28;20155;-66
2021/12/18 08:06:21;;;;;;;13.73;4.63;;;7.20;99.90;;;;;;5006640;28;20056;-65
2021/12/18 08:08:48;;;;;;;17.73;4.80;;;7.20;99.90;;;;;;5007332;28;20044;-64
2021/12/18 08:11:14;;;;;;;16.88;4.80;;;7.20;99.90;;;;;;4996348;28;20872;-64
2021/12/18 08:13:40;;;;;;;14.07;5.00;;;7.30;99.90;;;;;;5008912;28;20049;-65
2021/12/18 08:16:05;;;;;;;15.43;4.28;;;7.30;99.90;;;;;;5009167;28;20040;-65
2021/12/18 08:18:31;;;;;;;17.40;5.13;;;7.30;99.90;;;;;;5012441;28;20043;-66
2021/12/18 08:20:57;;;;;;;13.52;5.13;;;7.30;99.90;;;;;;4994079;28;20118;-66
2021/12/18 08:23:23;;;;;;;17.13;5.45;;;7.30;99.90;;;;;;5028287;28;20068;-66
2021/12/18 08:25:49;;;;;;;18.95;5.20;;;7.40;99.90;;;;;;5009990;28;20143;-66
2021/12/18 08:28:14;;;;;;;16.17;5.43;;;7.40;99.90;;;;;;5010117;28;20140;-65
2021/12/18 08:30:40;;;;;;;16.88;5.07;;;7.40;99.90;;;;;;5008620;28;20084;-66
2021/12/18 08:33:07;;;;;;;13.43;5.20;;;7.40;99.90;;;;;;5010098;28;20049;-66
2021/12/18 08:35:33;;;;;;;18.65;5.57;;;7.40;99.90;;;;;;5029953;28;20477;-66
2021/12/18 08:38:00;;;;;;;21.92;5.35;;;7.50;99.90;;;;;;5009119;28;20044;-66
2021/12/18 08:40:28;;;;;;;15.95;5.32;;;7.50;99.90;;;;;;5010585;28;20045;-66
2021/12/18 08:42:53;;;;;;;18.70;6.20;;;7.50;99.90;;;;;;5010947;28;20060;-65
2021/12/18 08:45:20;;;;;;;19.10;5.55;;;7.50;99.90;;;;;;5023260;28;20041;-65
2021/12/18 08:47:45;;;;;;;17.60;5.55;;;7.60;99.90;;;;;;5010560;28;20051;-66
2021/12/18 08:50:15;;;;;;;15.73;5.50;;;7.60;99.90;;;;;;5010774;28;20504;-66
2021/12/18 08:52:41;;;;;;;20.45;5.43;;;7.60;99.90;;;;;;5008261;28;20048;-66
2021/12/18 08:55:07;;;;;;;11.13;4.63;;;7.70;99.90;;;;;;5008366;28;22367;-67
2021/12/18 08:57:33;;;;;;;14.32;4.75;;;7.70;99.90;;;;;;5006854;28;20033;-65
2021/12/18 08:59:58;;;;;;;21.90;5.18;;;7.70;99.90;;;;;;5008149;28;20049;-65
2021/12/18 09:02:24;;;;;;;14.02;5.35;;;7.70;99.90;;;;;;5006794;28;20756;-66
2021/12/18 09:04:50;;;;;;;13.13;4.80;;;7.80;99.90;;;;;;5008107;28;20045;-66
2021/12/18 09:07:16;;;;;;;14.93;4.75;;;7.80;99.90;;;;;;5008138;28;20036;-66
2021/12/18 09:09:41;;;;;;;14.15;4.40;;;7.80;99.90;;;;;;5010482;28;20808;-67
2021/12/18 09:12:11;;;;;;;13.45;4.30;;;7.80;99.90;;;;;;5026262;28;20125;-67
2021/12/18 09:14:38;;;;;;;9.87;3.93;;;7.90;99.90;;;;;;5007984;28;20089;-66
2021/12/18 09:17:04;;;;;;;10.57;4.00;;;7.90;99.90;;;;;;4998452;28;20295;-66
2021/12/18 09:19:30;;;;;;;12.43;3.67;;;7.90;99.90;;;;;;5011896;28;20195;-67
2021/12/18 09:21:56;;;;;;;13.32;4.05;;;7.90;99.90;;;;;;5015420;28;20059;-66
2021/12/18 09:24:21;;;;;;;10.45;3.70;;;7.90;99.90;;;;;;5010561;28;20092;-66
2021/12/18 09:26:48;;;;;;;13.38;4.03;;;8.00;99.90;;;;;;5012754;28;20502;-66
2021/12/18 09:29:14;;;;;;;10.18;3.40;;;8.00;99.90;;;;;;5009858;28;20404;-66
2021/12/18 09:31:39;;;;;;;12.40;3.70;;;8.00;99.90;;;;;;5025824;28;20037;-66
2021/12/18 09:34:05;;;;;;;11.45;3.22;;;8.00;99.90;;;;;;5010969;28;20049;-66
2021/12/18 09:36:31;;;;;;;6.22;3.00;;;8.00;99.90;;;;;;5008645;28;20838;-66
2021/12/18 09:38:56;;;;;;;8.77;2.90;;;8.00;99.90;;;;;;5011905;28;20127;-65
2021/12/18 09:41:23;;;;;;;10.38;3.17;;;8.10;99.90;;;;;;5028977;28;20037;-65
2021/12/18 09:43:49;;;;;;;11.40;2.85;;;8.10;99.90;;;;;;5007517;28;20045;-66
2021/12/18 09:46:16;;;;;;;9.43;3.17;;;8.10;99.90;;;;;;5010936;28;20510;-66
2021/12/18 09:48:42;;;;;;;8.70;3.45;;;8.10;99.90;;;;;;5013059;28;20052;-65
2021/12/18 09:51:13;;;;;;;10.73;3.42;;;8.10;99.90;;;;;;5012210;28;20067;-66
2021/12/18 09:53:40;;;;;;;6.63;2.78;;;8.10;99.90;;;;;;5012511;28;20163;-66
2021/12/18 09:56:07;;;;;;;9.23;2.75;;;8.10;99.90;;;;;;5011628;28;20128;-65
2021/12/18 09:58:33;;;;;;;8.05;2.40;;;8.20;99.90;;;;;;5025553;28;20045;-65
2021/12/18 10:00:59;;;;;;;8.70;3.15;;;8.20;99.90;;;;;;5011483;28;20806;-65
2021/12/18 10:03:44;;;;;;;10.13;3.05;;;8.20;99.90;;;;;;5030675;28;20136;-65
2021/12/18 10:06:44;;;;;;;10.50;2.40;;;8.20;99.90;;;;;;5025803;28;20063;-65
2021/12/18 10:09:10;;;;;;;;;;;8.20;99.90;;;;;;5015087;28;20084;-66
2021/12/18 10:11:48;;;;;;;11.35;2.47;;;8.20;99.90;;;;;;5015105;28;19971;-67
2021/12/18 10:14:15;;;;;;;7.20;2.40;;;8.30;99.90;;;;;;5012555;28;20098;-66
2021/12/18 10:16:51;;;;;;;6.90;2.30;;;8.30;99.90;;;;;;5030544;28;20037;-66
2021/12/18 10:19:41;;;;;;;9.27;2.60;;;8.30;99.90;;;;;;4994845;28;20079;-66
2021/12/18 10:22:09;;;;;;;9.20;2.38;;;8.30;99.90;;;;;;4999120;28;20649;-65
2021/12/18 10:24:40;;;;;;;11.02;2.78;;;8.40;99.90;;;;;;5010508;28;20057;-66
2021/12/18 10:27:17;;;;;;;7.55;2.45;;;8.40;99.90;;;;;;5013434;28;20865;-67
2021/12/18 10:29:43;;;;;;;11.20;3.00;;;8.40;99.90;;;;;;5012862;28;20089;-67
2021/12/18 10:32:11;;;;;;;9.10;2.65;;;8.40;99.90;;;;;;5011035;28;20033;-67
2021/12/18 10:34:39;;;;;;;5.50;2.33;;;8.40;99.90;;;;;;4994784;28;20037;-66
2021/12/18 10:37:13;;;;;;;6.25;2.60;;;8.40;99.90;;;;;;5013571;28;20378;-66
2021/12/18 10:39:44;;;;;;;8.95;2.72;;;8.50;99.90;;;;;;5011775;28;20051;-67
2021/12/18 10:42:33;;;;;;;8.32;2.90;;;8.50;99.90;;;;;;5042525;28;20725;-66
2021/12/18 10:44:58;;;;;;;8.57;2.50;;;8.50;99.90;;;;;;5028221;28;20216;-66
2021/12/18 10:47:25;;;;;;;14.95;3.58;;;8.50;99.90;;;;;;5030238;28;20139;-66
2021/12/18 10:49:51;;;;;;;6.03;2.25;;;8.60;99.90;;;;;;5031318;28;20040;-66
2021/12/18 10:52:16;;;;;;;13.20;3.42;;;8.50;99.90;;;;;;5012662;28;20426;-65
2021/12/18 10:54:42;;;;;;;10.98;2.65;;;8.60;99.90;;;;;;5017799;28;20044;-66
2021/12/18 10:57:21;;;;;;;10.93;3.35;;;8.50;99.90;;;;;;5018895;28;20037;-67
2021/12/18 10:59:50;;;;;;;10.00;3.10;;;8.60;99.90;;;;;;5026301;28;20045;-66
2021/12/18 11:02:16;;;;;;;11.73;3.70;;;8.60;99.90;;;;;;4996385;28;20434;-66
2021/12/18 11:04:44;;;;;;;14.95;3.50;;;8.60;99.90;;;;;;5014758;28;20047;-67
2021/12/18 11:07:20;;;;;;;14.63;3.60;;;8.60;99.90;;;;;;4999606;28;20045;-66
2021/12/18 11:09:59;;;;;;;13.48;3.45;;;8.60;99.90;;;;;;5018393;28;20040;-66
2021/12/18 11:15:09;;;;;;;10.10;3.30;;;8.70;99.90;;;;;;5011740;28;26651;-66
2021/12/18 11:17:35;;;;;;;9.90;3.33;;;8.70;99.90;;;;;;5011368;28;20033;-66
2021/12/18 11:20:02;;;;;;;9.77;3.80;;;8.70;99.90;;;;;;5013302;28;20368;-66
2021/12/18 11:22:28;;;;;;;15.13;3.35;;;8.80;99.90;;;;;;5021061;28;20049;-67
2021/12/18 11:25:00;;;;;;;7.43;3.85;;;8.80;99.90;;;;;;5028812;28;20064;-66
2021/12/18 11:27:28;;;;;;;10.88;3.65;;;8.80;99.90;;;;;;5024952;28;20056;-67
2021/12/18 11:29:57;;;;;;;11.88;3.72;;;8.80;99.90;;;;;;5032687;28;20120;-66
2021/12/18 11:32:34;;;;;;;9.52;3.65;;;8.80;99.90;;;;;;5032825;28;20083;-66
2021/12/18 11:35:04;;;;;;;9.23;3.50;;;8.80;99.90;;;;;;5033532;28;20036;-68
2021/12/18 11:37:45;;;;;;;8.95;3.78;;;8.80;99.90;;;;;;5016479;28;20557;-66
2021/12/18 11:40:14;;;;;;;8.82;3.50;;;8.80;99.90;;;;;;5033061;28;20148;-67
2021/12/18 11:42:41;;;;;;;8.50;3.58;;;8.80;99.90;;;;;;5010084;28;20480;-67
2021/12/18 11:45:07;;;;;;;9.90;3.63;;;8.80;99.90;;;;;;4997466;28;20121;-67
2021/12/18 11:47:44;;;;;;;11.95;3.05;;;8.80;99.90;;;;;;5015334;28;20040;-67
2021/12/18 11:50:25;;;;;;;9.25;3.25;;;8.80;99.90;;;;;;5018453;28;20085;-66
2021/12/18 11:52:53;;;;;;;6.05;2.90;;;8.80;99.90;;;;;;5019614;28;20045;-66
2021/12/18 11:55:19;;;;;;;5.40;2.55;;;8.90;99.90;;;;;;4997573;28;20858;-67
2021/12/18 11:57:48;;;;;;;5.60;2.78;;;8.90;99.90;;;;;;5005711;28;21477;-66
2021/12/18 12:00:23;;;;;;;10.65;2.90;;;8.90;99.90;;;;;;5015169;28;20186;-67
2021/12/18 12:02:52;;;;;;;10.02;3.15;;;8.80;99.90;;;;;;5011843;28;20535;-67
2021/12/18 12:05:23;;;;;;;10.07;3.15;;;8.90;99.90;;;;;;5015942;28;20045;-68
2021/12/18 12:07:51;;;;;;;7.78;3.70;;;8.90;99.90;;;;;;5031166;28;20155;-69
2021/12/18 12:10:23;;;;;;;7.95;3.67;;;8.90;99.90;;;;;;5011960;28;20045;-67
2021/12/18 12:12:55;;;;;;;9.40;2.88;;;8.90;99.90;;;;;;4997104;28;20036;-68
2021/12/18 12:15:25;;;;;;;12.73;3.22;;;9.00;99.90;;;;;;5008454;28;20045;-67
2021/12/18 12:17:56;;;;;;;9.23;3.55;;;9.00;99.90;;;;;;5012362;28;20072;-67
2021/12/18 12:20:46;;;;;;;8.35;2.95;;;9.00;99.90;;;;;;5030666;28;20076;-66
2021/12/18 12:23:13;;;;;;;7.22;2.85;;;9.00;99.90;;;;;;5025636;28;20061;-68
2021/12/18 12:25:50;;;;;;;7.07;2.92;;;9.00;99.90;;;;;;5015522;28;20354;-67
2021/12/18 12:28:19;;;;;;;7.97;2.60;;;9.00;99.90;;;;;;5027773;28;20041;-67
2021/12/18 12:30:51;;;;;;;8.13;2.40;;;9.00;99.90;;;;;;5025031;28;20040;-67
2021/12/18 12:33:32;;;;;;;7.25;2.70;;;9.00;99.90;;;;;;5013207;28;20037;-66
2021/12/18 12:36:06;;;;;;;4.47;2.28;;;9.00;99.90;;;;;;5031649;28;20094;-67
2021/12/18 12:38:54;;;;;;;8.45;2.55;;;9.00;99.90;;;;;;5029088;28;20149;-68
2021/12/18 12:41:24;;;;;;;3.95;1.83;;;9.00;99.90;;;;;;5011557;28;20037;-66
2021/12/18 12:43:51;;;;;;;11.48;2.70;;;9.00;99.90;;;;;;5012423;28;20041;-68
2021/12/18 12:46:19;;;;;;;8.63;2.97;;;9.10;99.90;;;;;;5029682;28;20052;-67
2021/12/18 12:49:03;;;;;;;8.07;2.85;;;9.20;99.90;;;;;;5008958;28;20493;-67
2021/12/18 12:51:57;;;;;;;8.43;2.10;;;9.20;99.90;;;;;;5029336;28;20074;-67
2021/12/18 12:55:08;;;;;;;6.32;2.65;;;9.20;99.90;;;;;;5014167;28;20036;-67
2021/12/18 12:57:39;;;;;;;7.80;2.38;;;9.20;99.90;;;;;;5008546;28;20160;-67
2021/12/18 13:00:07;;;;;;;4.72;2.33;;;9.20;99.90;;;;;;5015672;28;20069;-68
2021/12/18 13:02:40;;;;;;;11.07;2.67;;;9.20;99.90;;;;;;5011075;28;20158;-67
2021/12/18 13:05:12;;;;;;;6.75;1.95;;;9.20;99.90;;;;;;5017538;28;20631;-66
2021/12/18 13:07:49;;;;;;;7.53;2.22;;;9.20;99.90;;;;;;5012292;28;20036;-67
2021/12/18 13:10:35;;;;;;;9.18;2.17;;;9.20;99.90;;;;;;5015747;28;20382;-67
2021/12/18 13:13:13;;;;;;;8.50;2.45;;;9.20;99.90;;;;;;5012052;28;20116;-67
2021/12/18 13:15:48;;;;;;;8.93;2.30;;;9.20;99.90;;;;;;5012022;28;20119;-67
2021/12/18 13:18:14;;;;;;;8.48;2.33;;;9.20;99.90;;;;;;4997969;28;20033;-67
2021/12/18 13:20:57;;;;;;;9.32;2.88;;;9.20;99.90;;;;;;5015096;28;20132;-68
2021/12/18 13:23:37;;;;;;;9.63;2.88;;;9.20;99.90;;;;;;5012414;28;20068;-66
2021/12/18 13:26:03;;;;;;;10.65;2.30;;;9.10;99.90;;;;;;5013812;28;20036;-67
2021/12/18 13:28:29;;;;;;;8.57;2.25;;;9.10;99.90;;;;;;5011816;28;20045;-67
2021/12/18 13:30:55;;;;;;;9.48;2.70;;;9.10;99.90;;;;;;4996364;28;20037;-67
2021/12/18 13:33:29;;;;;;;9.77;2.45;;;9.10;99.90;;;;;;5013981;28;20079;-67
2021/12/18 13:36:00;;;;;;;6.55;2.08;;;9.10;99.90;;;;;;5015958;28;20053;-67